sensor_id;sensor_type;location;lat;lon;timestamp;temperature;humidity
27890;DHT22;15238;49.082;9.102;2023-02-15T00:00:14;0.60;99.90
27890;DHT22;15238;49.082;9.102;2023-02-15T00:02:14;0.60;99.90
27890;DHT22;15238;49.082;9.102;2023-02-15T00:04:17;0.50;99.90
27890;DHT22;15238;49.082;9.102;2023-02-15T00:06:18;0.50;99.90
27890;DHT22;15238;49.082;9.102;2023-02-15T00:08:18;0.50;99.90
27890;DHT22;15238;49.082;9.102;2023-02-15T00:10:19;0.50;99.90
27890;DHT22;15238;49.082;9.102;2023-02-15T00:12:20;0.50;99.90
27890;DHT22;15238;49.082;9.102;2023-02-15T00:14:22;0.50;99.90
27890;DHT22;15238;49.082;9.102;2023-02-15T00:16:23;0.50;99.90
27890;DHT22;15238;49.082;9.102;2023-02-15T00:18:24;0.50;99.90
27890;DHT22;15238;49.082;9.102;2023-02-15T00:20:24;0.50;99.90
27890;DHT22;15238;49.082;9.102;2023-02-15T00:22:25;0.50;99.90
27890;DHT22;15238;49.082;9.102;2023-02-15T00:24:26;0.50;99.90
27890;DHT22;15238;49.082;9.102;2023-02-15T00:26:27;0.50;99.90
27890;DHT22;15238;49.082;9.102;2023-02-15T00:28:28;0.50;99.90
27890;DHT22;15238;49.082;9.102;2023-02-15T00:30:29;0.50;99.90
27890;DHT22;15238;49.082;9.102;2023-02-15T00:32:31;0.50;99.90
27890;DHT22;15238;49.082;9.102;2023-02-15T00:34:31;0.50;99.90
27890;DHT22;15238;49.082;9.102;2023-02-15T00:36:32;0.50;99.90
27890;DHT22;15238;49.082;9.102;2023-02-15T00:38:33;0.60;99.90
27890;DHT22;15238;49.082;9.102;2023-02-15T00:40:34;0.60;99.90
27890;DHT22;15238;49.082;9.102;2023-02-15T00:42:34;0.50;99.90
27890;DHT22;15238;49.082;9.102;2023-02-15T00:44:35;0.60;99.90
27890;DHT22;15238;49.082;9.102;2023-02-15T00:46:36;0.60;99.90
27890;DHT22;15238;49.082;9.102;2023-02-15T00:48:36;0.60;99.90
27890;DHT22;15238;49.082;9.102;2023-02-15T00:50:37;0.60;99.90
27890;DHT22;15238;49.082;9.102;2023-02-15T00:52:37;0.60;99.90
27890;DHT22;15238;49.082;9.102;2023-02-15T00:54:38;0.60;99.90
27890;DHT22;15238;49.082;9.102;2023-02-15T00:56:39;0.60;99.90
27890;DHT22;15238;49.082;9.102;2023-02-15T01:00:50;0.60;99.90
27890;DHT22;15238;49.082;9.102;2023-02-15T01:02:50;0.60;99.90
27890;DHT22;15238;49.082;9.102;2023-02-15T01:04:51;0.60;99.90
27890;DHT22;15238;49.082;9.102;2023-02-15T01:06:51;0.60;99.90
27890;DHT22;15238;49.082;9.102;2023-02-15T01:08:52;0.50;99.90
27890;DHT22;15238;49.082;9.102;2023-02-15T01:10:53;0.50;99.90
27890;DHT22;15238;49.082;9.102;2023-02-15T01:12:54;0.50;99.90
27890;DHT22;15238;49.082;9.102;2023-02-15T01:14:55;0.50;99.90
27890;DHT22;15238;49.082;9.102;2023-02-15T01:16:56;0.50;99.90
27890;DHT22;15238;49.082;9.102;2023-02-15T01:18:56;0.50;99.90
27890;DHT22;15238;49.082;9.102;2023-02-15T01:20:57;0.50;99.90
27890;DHT22;15238;49.082;9.102;2023-02-15T01:22:57;0.40;99.90
27890;DHT22;15238;49.082;9.102;2023-02-15T01:24:58;0.40;99.90
27890;DHT22;15238;49.082;9.102;2023-02-15T01:26:59;0.50;99.90
27890;DHT22;15238;49.082;9.102;2023-02-15T01:28:59;0.40;99.90
27890;DHT22;15238;49.082;9.102;2023-02-15T01:31:11;0.50;99.90
27890;DHT22;15238;49.082;9.102;2023-02-15T01:33:13;0.50;99.90
27890;DHT22;15238;49.082;9.102;2023-02-15T01:35:17;0.60;99.90
27890;DHT22;15238;49.082;9.102;2023-02-15T01:37:18;0.60;99.90
27890;DHT22;15238;49.082;9.102;2023-02-15T01:39:18;0.50;99.90
27890;DHT22;15238;49.082;9.102;2023-02-15T01:41:19;0.50;99.90
27890;DHT22;15238;49.082;9.102;2023-02-15T01:43:20;0.50;99.90
27890;DHT22;15238;49.082;9.102;2023-02-15T01:45:27;0.50;99.90
27890;DHT22;15238;49.082;9.102;2023-02-15T01:47:43;0.40;99.90
27890;DHT22;15238;49.082;9.102;2023-02-15T01:49:45;0.40;99.90
27890;DHT22;15238;49.082;9.102;2023-02-15T01:51:48;0.40;99.90
27890;DHT22;15238;49.082;9.102;2023-02-15T01:53:55;0.40;99.90
27890;DHT22;15238;49.082;9.102;2023-02-15T01:56:01;0.30;99.90
27890;DHT22;15238;49.082;9.102;2023-02-15T01:58:02;0.30;99.90
27890;DHT22;15238;49.082;9.102;2023-02-15T02:00:04;0.30;99.90
27890;DHT22;15238;49.082;9.102;2023-02-15T02:02:09;0.30;99.90
27890;DHT22;15238;49.082;9.102;2023-02-15T02:04:16;0.30;99.90
27890;DHT22;15238;49.082;9.102;2023-02-15T02:06:19;0.30;99.90
27890;DHT22;15238;49.082;9.102;2023-02-15T02:08:21;0.30;99.90
27890;DHT22;15238;49.082;9.102;2023-02-15T02:10:23;0.30;99.90
27890;DHT22;15238;49.082;9.102;2023-02-15T02:12:25;0.30;99.90
27890;DHT22;15238;49.082;9.102;2023-02-15T02:14:25;0.30;99.90
27890;DHT22;15238;49.082;9.102;2023-02-15T02:16:42;0.30;99.90
27890;DHT22;15238;49.082;9.102;2023-02-15T02:21:35;0.30;99.90
27890;DHT22;15238;49.082;9.102;2023-02-15T02:26:29;0.30;99.90
27890;DHT22;15238;49.082;9.102;2023-02-15T02:36:10;0.30;99.90
27890;DHT22;15238;49.082;9.102;2023-02-15T02:38:27;0.20;99.90
27890;DHT22;15238;49.082;9.102;2023-02-15T02:43:04;0.20;99.90
27890;DHT22;15238;49.082;9.102;2023-02-15T02:45:10;0.20;99.90
27890;DHT22;15238;49.082;9.102;2023-02-15T02:47:22;0.20;99.90
27890;DHT22;15238;49.082;9.102;2023-02-15T02:49:39;0.30;99.90
27890;DHT22;15238;49.082;9.102;2023-02-15T02:51:39;0.30;99.90
27890;DHT22;15238;49.082;9.102;2023-02-15T02:53:40;0.30;99.90
27890;DHT22;15238;49.082;9.102;2023-02-15T02:55:54;0.30;99.90
27890;DHT22;15238;49.082;9.102;2023-02-15T03:00:17;0.20;99.90
27890;DHT22;15238;49.082;9.102;2023-02-15T03:02:26;0.30;99.90
27890;DHT22;15238;49.082;9.102;2023-02-15T03:04:32;0.30;99.90
27890;DHT22;15238;49.082;9.102;2023-02-15T03:09:05;0.30;99.90
27890;DHT22;15238;49.082;9.102;2023-02-15T03:11:07;0.20;99.90
27890;DHT22;15238;49.082;9.102;2023-02-15T03:13:08;0.10;99.90
27890;DHT22;15238;49.082;9.102;2023-02-15T03:15:19;0.10;99.90
27890;DHT22;15238;49.082;9.102;2023-02-15T03:17:22;0.20;99.90
27890;DHT22;15238;49.082;9.102;2023-02-15T03:19:29;0.10;99.90
27890;DHT22;15238;49.082;9.102;2023-02-15T03:21:34;0.20;99.90
27890;DHT22;15238;49.082;9.102;2023-02-15T03:23:37;0.20;99.90
27890;DHT22;15238;49.082;9.102;2023-02-15T03:25:52;0.20;99.90
27890;DHT22;15238;49.082;9.102;2023-02-15T03:27:58;0.30;99.90
27890;DHT22;15238;49.082;9.102;2023-02-15T03:30:00;0.20;99.90
27890;DHT22;15238;49.082;9.102;2023-02-15T03:32:03;0.20;99.90
27890;DHT22;15238;49.082;9.102;2023-02-15T03:34:10;0.20;99.90
27890;DHT22;15238;49.082;9.102;2023-02-15T03:36:21;0.10;99.90
27890;DHT22;15238;49.082;9.102;2023-02-15T03:38:29;0.20;99.90
27890;DHT22;15238;49.082;9.102;2023-02-15T03:40:38;0.20;99.90
27890;DHT22;15238;49.082;9.102;2023-02-15T03:43:26;0.10;99.90
27890;DHT22;15238;49.082;9.102;2023-02-15T03:45:31;0.10;99.90
27890;DHT22;15238;49.082;9.102;2023-02-15T03:47:37;0.10;99.90
27890;DHT22;15238;49.082;9.102;2023-02-15T03:49:43;0.10;99.90
27890;DHT22;15238;49.082;9.102;2023-02-15T03:51:48;0.10;99.90
27890;DHT22;15238;49.082;9.102;2023-02-15T03:53:51;0.10;99.90
27890;DHT22;15238;49.082;9.102;2023-02-15T03:55:55;0.10;99.90
27890;DHT22;15238;49.082;9.102;2023-02-15T03:57:56;0.10;99.90
27890;DHT22;15238;49.082;9.102;2023-02-15T04:02:43;0.10;99.90
27890;DHT22;15238;49.082;9.102;2023-02-15T04:04:47;0.10;99.90
27890;DHT22;15238;49.082;9.102;2023-02-15T04:06:47;0.10;99.90
27890;DHT22;15238;49.082;9.102;2023-02-15T04:08:48;0.10;99.90
27890;DHT22;15238;49.082;9.102;2023-02-15T04:11:07;0.10;99.90
27890;DHT22;15238;49.082;9.102;2023-02-15T04:13:08;0.20;99.90
27890;DHT22;15238;49.082;9.102;2023-02-15T04:15:12;0.10;99.90
27890;DHT22;15238;49.082;9.102;2023-02-15T04:17:31;0.10;99.90
27890;DHT22;15238;49.082;9.102;2023-02-15T04:19:32;0.10;99.90
27890;DHT22;15238;49.082;9.102;2023-02-15T04:21:51;0.20;99.90
27890;DHT22;15238;49.082;9.102;2023-02-15T04:24:10;0.10;99.90
27890;DHT22;15238;49.082;9.102;2023-02-15T04:26:29;0.10;99.90
27890;DHT22;15238;49.082;9.102;2023-02-15T04:28:30;0.10;99.90
27890;DHT22;15238;49.082;9.102;2023-02-15T04:30:30;0.00;99.90
27890;DHT22;15238;49.082;9.102;2023-02-15T04:32:31;0.00;99.90
27890;DHT22;15238;49.082;9.102;2023-02-15T04:34:32;0.10;99.90
27890;DHT22;15238;49.082;9.102;2023-02-15T04:36:32;0.10;99.90
27890;DHT22;15238;49.082;9.102;2023-02-15T04:38:33;0.00;99.90
27890;DHT22;15238;49.082;9.102;2023-02-15T04:40:33;0.00;99.90
27890;DHT22;15238;49.082;9.102;2023-02-15T04:42:34;0.00;99.90
27890;DHT22;15238;49.082;9.102;2023-02-15T04:44:34;0.00;99.90
27890;DHT22;15238;49.082;9.102;2023-02-15T04:46:35;0.00;99.90
27890;DHT22;15238;49.082;9.102;2023-02-15T04:48:35;0.00;99.90
27890;DHT22;15238;49.082;9.102;2023-02-15T04:50:36;0.00;99.90
27890;DHT22;15238;49.082;9.102;2023-02-15T04:52:36;-0.10;99.90
27890;DHT22;15238;49.082;9.102;2023-02-15T04:54:37;-0.10;99.90
27890;DHT22;15238;49.082;9.102;2023-02-15T04:56:39;-0.20;99.90
27890;DHT22;15238;49.082;9.102;2023-02-15T04:58:39;-0.20;99.90
27890;DHT22;15238;49.082;9.102;2023-02-15T05:00:43;-0.30;99.90
27890;DHT22;15238;49.082;9.102;2023-02-15T05:02:43;-0.30;99.90
27890;DHT22;15238;49.082;9.102;2023-02-15T05:04:44;-0.20;99.90
27890;DHT22;15238;49.082;9.102;2023-02-15T05:06:44;-0.20;99.90
27890;DHT22;15238;49.082;9.102;2023-02-15T05:08:45;-0.20;99.90
27890;DHT22;15238;49.082;9.102;2023-02-15T05:10:48;-0.20;99.90
27890;DHT22;15238;49.082;9.102;2023-02-15T05:12:51;-0.30;99.90
27890;DHT22;15238;49.082;9.102;2023-02-15T05:14:51;-0.30;99.90
27890;DHT22;15238;49.082;9.102;2023-02-15T05:16:52;-0.20;99.90
27890;DHT22;15238;49.082;9.102;2023-02-15T05:18:57;-0.30;99.90
27890;DHT22;15238;49.082;9.102;2023-02-15T05:20:57;-0.30;99.90
27890;DHT22;15238;49.082;9.102;2023-02-15T05:22:58;-0.30;99.90
27890;DHT22;15238;49.082;9.102;2023-02-15T05:24:58;-0.30;99.90
27890;DHT22;15238;49.082;9.102;2023-02-15T05:27:17;-0.30;99.90
27890;DHT22;15238;49.082;9.102;2023-02-15T05:29:37;-0.30;99.90
27890;DHT22;15238;49.082;9.102;2023-02-15T05:31:38;-0.30;99.90
27890;DHT22;15238;49.082;9.102;2023-02-15T05:33:39;-0.30;99.90
27890;DHT22;15238;49.082;9.102;2023-02-15T05:35:40;-0.30;99.90
27890;DHT22;15238;49.082;9.102;2023-02-15T05:37:41;-0.30;99.90
27890;DHT22;15238;49.082;9.102;2023-02-15T05:39:41;-0.30;99.90
27890;DHT22;15238;49.082;9.102;2023-02-15T05:41:42;-0.40;99.90
27890;DHT22;15238;49.082;9.102;2023-02-15T05:43:42;-0.30;99.90
27890;DHT22;15238;49.082;9.102;2023-02-15T05:45:47;-0.30;99.90
27890;DHT22;15238;49.082;9.102;2023-02-15T05:47:48;-0.30;99.90
27890;DHT22;15238;49.082;9.102;2023-02-15T05:49:48;-0.30;99.90
27890;DHT22;15238;49.082;9.102;2023-02-15T05:51:49;-0.40;99.90
27890;DHT22;15238;49.082;9.102;2023-02-15T05:53:49;-0.40;99.90
27890;DHT22;15238;49.082;9.102;2023-02-15T05:55:50;-0.30;99.90
27890;DHT22;15238;49.082;9.102;2023-02-15T05:57:50;-0.30;99.90
27890;DHT22;15238;49.082;9.102;2023-02-15T05:59:51;-0.30;99.90
27890;DHT22;15238;49.082;9.102;2023-02-15T06:01:51;-0.30;99.90
27890;DHT22;15238;49.082;9.102;2023-02-15T06:03:52;-0.30;99.90
27890;DHT22;15238;49.082;9.102;2023-02-15T06:05:52;-0.30;99.90
27890;DHT22;15238;49.082;9.102;2023-02-15T06:07:53;-0.30;99.90
27890;DHT22;15238;49.082;9.102;2023-02-15T06:09:53;-0.40;99.90
27890;DHT22;15238;49.082;9.102;2023-02-15T06:11:54;-0.40;99.90
27890;DHT22;15238;49.082;9.102;2023-02-15T06:13:55;-0.40;99.90
27890;DHT22;15238;49.082;9.102;2023-02-15T06:15:55;-0.40;99.90
27890;DHT22;15238;49.082;9.102;2023-02-15T06:17:56;-0.40;99.90
27890;DHT22;15238;49.082;9.102;2023-02-15T06:19:56;-0.40;99.90
27890;DHT22;15238;49.082;9.102;2023-02-15T06:21:57;-0.30;99.90
27890;DHT22;15238;49.082;9.102;2023-02-15T06:23:57;-0.30;99.90
27890;DHT22;15238;49.082;9.102;2023-02-15T06:25:58;-0.20;99.90
27890;DHT22;15238;49.082;9.102;2023-02-15T06:27:59;-0.30;99.90
27890;DHT22;15238;49.082;9.102;2023-02-15T06:29:59;-0.20;99.90
27890;DHT22;15238;49.082;9.102;2023-02-15T06:32:00;-0.20;99.90
27890;DHT22;15238;49.082;9.102;2023-02-15T06:34:02;-0.20;99.90
27890;DHT22;15238;49.082;9.102;2023-02-15T06:36:06;-0.20;99.90
27890;DHT22;15238;49.082;9.102;2023-02-15T06:38:07;-0.30;99.90
27890;DHT22;15238;49.082;9.102;2023-02-15T06:40:07;-0.30;99.90
27890;DHT22;15238;49.082;9.102;2023-02-15T06:42:08;-0.30;99.90
27890;DHT22;15238;49.082;9.102;2023-02-15T06:44:09;-0.40;99.90
27890;DHT22;15238;49.082;9.102;2023-02-15T06:46:09;-0.40;99.90
27890;DHT22;15238;49.082;9.102;2023-02-15T06:48:10;-0.40;99.90
27890;DHT22;15238;49.082;9.102;2023-02-15T06:50:11;-0.40;99.90
27890;DHT22;15238;49.082;9.102;2023-02-15T06:52:12;-0.50;99.90
27890;DHT22;15238;49.082;9.102;2023-02-15T06:54:12;-0.50;99.90
27890;DHT22;15238;49.082;9.102;2023-02-15T06:56:13;-0.60;99.90
27890;DHT22;15238;49.082;9.102;2023-02-15T06:58:13;-0.60;99.90
27890;DHT22;15238;49.082;9.102;2023-02-15T07:00:14;-0.60;99.90
27890;DHT22;15238;49.082;9.102;2023-02-15T07:02:15;-0.60;99.90
27890;DHT22;15238;49.082;9.102;2023-02-15T07:04:15;-0.60;99.90
27890;DHT22;15238;49.082;9.102;2023-02-15T07:06:16;-0.50;99.90
27890;DHT22;15238;49.082;9.102;2023-02-15T07:08:16;-0.50;99.90
27890;DHT22;15238;49.082;9.102;2023-02-15T07:10:17;-0.40;99.90
27890;DHT22;15238;49.082;9.102;2023-02-15T07:12:18;-0.30;99.90
27890;DHT22;15238;49.082;9.102;2023-02-15T07:14:37;-0.30;99.90
27890;DHT22;15238;49.082;9.102;2023-02-15T07:16:37;-0.30;99.90
27890;DHT22;15238;49.082;9.102;2023-02-15T07:18:39;-0.20;99.90
27890;DHT22;15238;49.082;9.102;2023-02-15T07:20:40;-0.20;99.90
27890;DHT22;15238;49.082;9.102;2023-02-15T07:22:42;-0.30;99.90
27890;DHT22;15238;49.082;9.102;2023-02-15T07:24:43;-0.30;99.90
27890;DHT22;15238;49.082;9.102;2023-02-15T07:26:50;-0.40;99.90
27890;DHT22;15238;49.082;9.102;2023-02-15T07:28:51;-0.30;99.90
27890;DHT22;15238;49.082;9.102;2023-02-15T07:30:52;-0.30;99.90
27890;DHT22;15238;49.082;9.102;2023-02-15T07:32:56;-0.30;99.90
27890;DHT22;15238;49.082;9.102;2023-02-15T07:35:16;-0.30;99.90
27890;DHT22;15238;49.082;9.102;2023-02-15T07:37:17;-0.20;99.90
27890;DHT22;15238;49.082;9.102;2023-02-15T07:39:17;-0.20;99.90
27890;DHT22;15238;49.082;9.102;2023-02-15T07:41:18;-0.20;99.90
27890;DHT22;15238;49.082;9.102;2023-02-15T07:43:18;-0.20;99.90
27890;DHT22;15238;49.082;9.102;2023-02-15T07:45:19;-0.20;99.90
27890;DHT22;15238;49.082;9.102;2023-02-15T07:47:19;-0.20;99.90
27890;DHT22;15238;49.082;9.102;2023-02-15T07:49:20;-0.30;99.90
27890;DHT22;15238;49.082;9.102;2023-02-15T07:51:20;-0.30;99.90
27890;DHT22;15238;49.082;9.102;2023-02-15T07:53:21;-0.30;99.90
27890;DHT22;15238;49.082;9.102;2023-02-15T07:55:21;-0.30;99.90
27890;DHT22;15238;49.082;9.102;2023-02-15T07:57:22;-0.20;99.90
27890;DHT22;15238;49.082;9.102;2023-02-15T07:59:22;-0.20;99.90
27890;DHT22;15238;49.082;9.102;2023-02-15T08:01:30;-0.10;99.90
27890;DHT22;15238;49.082;9.102;2023-02-15T08:03:31;-0.10;99.90
27890;DHT22;15238;49.082;9.102;2023-02-15T08:05:31;0.00;99.90
27890;DHT22;15238;49.082;9.102;2023-02-15T08:07:32;0.10;99.90
27890;DHT22;15238;49.082;9.102;2023-02-15T08:09:32;0.10;99.90
27890;DHT22;15238;49.082;9.102;2023-02-15T08:11:38;0.10;99.90
27890;DHT22;15238;49.082;9.102;2023-02-15T08:13:42;0.10;99.90
27890;DHT22;15238;49.082;9.102;2023-02-15T08:15:53;0.00;99.90
27890;DHT22;15238;49.082;9.102;2023-02-15T08:17:54;0.10;99.90
27890;DHT22;15238;49.082;9.102;2023-02-15T08:19:54;0.10;99.90
27890;DHT22;15238;49.082;9.102;2023-02-15T08:22:02;0.10;99.90
27890;DHT22;15238;49.082;9.102;2023-02-15T08:24:04;0.20;99.90
27890;DHT22;15238;49.082;9.102;2023-02-15T08:26:05;0.20;99.90
27890;DHT22;15238;49.082;9.102;2023-02-15T08:28:05;0.20;99.90
27890;DHT22;15238;49.082;9.102;2023-02-15T08:30:06;0.30;99.90
27890;DHT22;15238;49.082;9.102;2023-02-15T08:32:09;0.20;99.90
27890;DHT22;15238;49.082;9.102;2023-02-15T08:34:12;0.30;99.90
27890;DHT22;15238;49.082;9.102;2023-02-15T08:36:16;0.30;99.90
27890;DHT22;15238;49.082;9.102;2023-02-15T08:38:16;0.30;99.90
27890;DHT22;15238;49.082;9.102;2023-02-15T08:40:17;0.40;99.90
27890;DHT22;15238;49.082;9.102;2023-02-15T08:42:17;0.40;99.90
27890;DHT22;15238;49.082;9.102;2023-02-15T08:44:19;0.40;99.90
27890;DHT22;15238;49.082;9.102;2023-02-15T08:46:20;0.50;99.90
27890;DHT22;15238;49.082;9.102;2023-02-15T08:48:21;0.50;99.90
27890;DHT22;15238;49.082;9.102;2023-02-15T08:50:22;0.50;99.90
27890;DHT22;15238;49.082;9.102;2023-02-15T08:52:23;0.40;99.90
27890;DHT22;15238;49.082;9.102;2023-02-15T08:54:23;0.40;99.90
27890;DHT22;15238;49.082;9.102;2023-02-15T08:56:28;0.40;99.90
27890;DHT22;15238;49.082;9.102;2023-02-15T08:58:29;0.50;99.90
27890;DHT22;15238;49.082;9.102;2023-02-15T09:00:31;0.50;99.90
27890;DHT22;15238;49.082;9.102;2023-02-15T09:02:31;0.50;99.90
27890;DHT22;15238;49.082;9.102;2023-02-15T09:04:32;0.50;99.90
27890;DHT22;15238;49.082;9.102;2023-02-15T09:06:32;0.60;99.90
27890;DHT22;15238;49.082;9.102;2023-02-15T09:08:33;0.50;99.90
27890;DHT22;15238;49.082;9.102;2023-02-15T09:10:34;0.40;99.90
27890;DHT22;15238;49.082;9.102;2023-02-15T09:12:34;0.40;99.90
27890;DHT22;15238;49.082;9.102;2023-02-15T09:14:35;0.40;99.90
27890;DHT22;15238;49.082;9.102;2023-02-15T09:16:37;0.40;99.90
27890;DHT22;15238;49.082;9.102;2023-02-15T09:18:39;0.60;99.90
27890;DHT22;15238;49.082;9.102;2023-02-15T09:20:39;0.60;99.90
27890;DHT22;15238;49.082;9.102;2023-02-15T09:22:40;0.70;99.90
27890;DHT22;15238;49.082;9.102;2023-02-15T09:24:40;0.80;99.90
27890;DHT22;15238;49.082;9.102;2023-02-15T09:26:44;0.80;99.90
27890;DHT22;15238;49.082;9.102;2023-02-15T09:28:46;0.80;99.90
27890;DHT22;15238;49.082;9.102;2023-02-15T09:30:46;0.90;99.90
27890;DHT22;15238;49.082;9.102;2023-02-15T09:32:47;0.90;99.90
27890;DHT22;15238;49.082;9.102;2023-02-15T09:34:48;1.00;99.90
27890;DHT22;15238;49.082;9.102;2023-02-15T09:36:49;1.00;99.90
27890;DHT22;15238;49.082;9.102;2023-02-15T09:41:12;0.90;99.90
27890;DHT22;15238;49.082;9.102;2023-02-15T09:43:29;1.00;99.90
27890;DHT22;15238;49.082;9.102;2023-02-15T09:45:50;1.10;99.90
27890;DHT22;15238;49.082;9.102;2023-02-15T09:48:00;1.20;99.90
27890;DHT22;15238;49.082;9.102;2023-02-15T09:50:15;1.20;99.90
27890;DHT22;15238;49.082;9.102;2023-02-15T09:54:49;1.30;99.90
27890;DHT22;15238;49.082;9.102;2023-02-15T09:57:15;1.40;99.90
27890;DHT22;15238;49.082;9.102;2023-02-15T09:59:57;1.40;99.90
27890;DHT22;15238;49.082;9.102;2023-02-15T10:02:38;1.40;99.90
27890;DHT22;15238;49.082;9.102;2023-02-15T10:04:50;1.40;99.90
27890;DHT22;15238;49.082;9.102;2023-02-15T10:07:20;1.40;99.90
27890;DHT22;15238;49.082;9.102;2023-02-15T10:09:40;1.50;99.90
27890;DHT22;15238;49.082;9.102;2023-02-15T10:12:02;1.50;99.90
27890;DHT22;15238;49.082;9.102;2023-02-15T10:19:11;1.60;99.90
27890;DHT22;15238;49.082;9.102;2023-02-15T10:21:43;1.60;99.90
27890;DHT22;15238;49.082;9.102;2023-02-15T10:24:16;1.60;99.90
27890;DHT22;15238;49.082;9.102;2023-02-15T10:26:34;1.40;99.90
27890;DHT22;15238;49.082;9.102;2023-02-15T10:28:54;1.50;99.90
27890;DHT22;15238;49.082;9.102;2023-02-15T10:31:14;1.70;99.90
27890;DHT22;15238;49.082;9.102;2023-02-15T10:33:27;1.80;99.90
27890;DHT22;15238;49.082;9.102;2023-02-15T10:35:47;1.90;99.90
27890;DHT22;15238;49.082;9.102;2023-02-15T10:38:08;1.80;99.90
27890;DHT22;15238;49.082;9.102;2023-02-15T10:45:20;1.90;99.90
27890;DHT22;15238;49.082;9.102;2023-02-15T10:54:02;1.80;99.90
27890;DHT22;15238;49.082;9.102;2023-02-15T10:58:29;1.70;99.90
27890;DHT22;15238;49.082;9.102;2023-02-15T11:07:38;1.50;99.90
27890;DHT22;15238;49.082;9.102;2023-02-15T11:10:01;1.50;99.90
27890;DHT22;15238;49.082;9.102;2023-02-15T11:12:16;1.60;99.90
27890;DHT22;15238;49.082;9.102;2023-02-15T11:14:36;1.80;99.90
27890;DHT22;15238;49.082;9.102;2023-02-15T11:16:41;2.10;99.90
27890;DHT22;15238;49.082;9.102;2023-02-15T11:19:11;2.30;99.90
27890;DHT22;15238;49.082;9.102;2023-02-15T11:21:16;2.30;99.90
27890;DHT22;15238;49.082;9.102;2023-02-15T11:23:17;2.50;99.90
27890;DHT22;15238;49.082;9.102;2023-02-15T11:25:34;2.50;99.90
27890;DHT22;15238;49.082;9.102;2023-02-15T11:27:36;2.70;99.90
27890;DHT22;15238;49.082;9.102;2023-02-15T11:29:38;2.70;99.90
27890;DHT22;15238;49.082;9.102;2023-02-15T11:31:49;2.80;99.90
27890;DHT22;15238;49.082;9.102;2023-02-15T11:33:58;2.90;99.90
27890;DHT22;15238;49.082;9.102;2023-02-15T11:38:29;2.30;99.90
27890;DHT22;15238;49.082;9.102;2023-02-15T11:40:35;2.30;99.90
27890;DHT22;15238;49.082;9.102;2023-02-15T11:42:36;2.30;99.90
27890;DHT22;15238;49.082;9.102;2023-02-15T11:45:07;2.40;99.90
27890;DHT22;15238;49.082;9.102;2023-02-15T11:47:15;2.70;99.90
27890;DHT22;15238;49.082;9.102;2023-02-15T11:49:31;2.90;99.90
27890;DHT22;15238;49.082;9.102;2023-02-15T11:51:32;3.00;99.90
27890;DHT22;15238;49.082;9.102;2023-02-15T11:53:36;3.10;99.90
27890;DHT22;15238;49.082;9.102;2023-02-15T11:55:38;3.00;99.90
27890;DHT22;15238;49.082;9.102;2023-02-15T11:57:42;3.00;99.90
27890;DHT22;15238;49.082;9.102;2023-02-15T11:59:58;3.10;99.90
27890;DHT22;15238;49.082;9.102;2023-02-15T12:02:00;3.00;99.90
27890;DHT22;15238;49.082;9.102;2023-02-15T12:04:06;3.00;99.90
27890;DHT22;15238;49.082;9.102;2023-02-15T12:06:24;3.00;99.90
27890;DHT22;15238;49.082;9.102;2023-02-15T12:08:37;2.90;99.90
27890;DHT22;15238;49.082;9.102;2023-02-15T12:10:53;3.10;99.90
27890;DHT22;15238;49.082;9.102;2023-02-15T12:13:16;3.20;99.90
27890;DHT22;15238;49.082;9.102;2023-02-15T12:15:30;3.20;99.90
27890;DHT22;15238;49.082;9.102;2023-02-15T12:17:39;3.10;99.90
27890;DHT22;15238;49.082;9.102;2023-02-15T12:19:40;3.20;99.90
27890;DHT22;15238;49.082;9.102;2023-02-15T12:21:42;3.10;99.90
27890;DHT22;15238;49.082;9.102;2023-02-15T12:23:49;3.00;99.90
27890;DHT22;15238;49.082;9.102;2023-02-15T12:25:54;3.10;99.90
27890;DHT22;15238;49.082;9.102;2023-02-15T12:27:56;3.10;99.90
27890;DHT22;15238;49.082;9.102;2023-02-15T12:30:30;3.10;99.90
27890;DHT22;15238;49.082;9.102;2023-02-15T12:32:35;3.00;99.90
27890;DHT22;15238;49.082;9.102;2023-02-15T12:34:38;3.10;99.90
27890;DHT22;15238;49.082;9.102;2023-02-15T12:36:46;3.10;99.90
27890;DHT22;15238;49.082;9.102;2023-02-15T12:39:16;3.20;99.90
27890;DHT22;15238;49.082;9.102;2023-02-15T12:41:25;3.10;99.90
27890;DHT22;15238;49.082;9.102;2023-02-15T12:43:38;3.20;99.90
27890;DHT22;15238;49.082;9.102;2023-02-15T12:45:39;3.30;99.90
27890;DHT22;15238;49.082;9.102;2023-02-15T12:47:39;3.50;99.90
27890;DHT22;15238;49.082;9.102;2023-02-15T12:49:40;3.60;99.90
27890;DHT22;15238;49.082;9.102;2023-02-15T12:51:46;3.70;99.90
27890;DHT22;15238;49.082;9.102;2023-02-15T12:53:47;3.90;99.90
27890;DHT22;15238;49.082;9.102;2023-02-15T12:55:56;3.90;99.90
27890;DHT22;15238;49.082;9.102;2023-02-15T12:58:07;3.90;99.90
27890;DHT22;15238;49.082;9.102;2023-02-15T13:02:26;4.00;99.90
27890;DHT22;15238;49.082;9.102;2023-02-15T13:04:29;4.00;99.90
27890;DHT22;15238;49.082;9.102;2023-02-15T13:06:35;4.00;99.90
27890;DHT22;15238;49.082;9.102;2023-02-15T13:08:46;4.00;99.90
27890;DHT22;15238;49.082;9.102;2023-02-15T13:13:01;4.20;99.90
27890;DHT22;15238;49.082;9.102;2023-02-15T13:15:23;4.30;99.90
27890;DHT22;15238;49.082;9.102;2023-02-15T13:17:28;4.40;99.90
27890;DHT22;15238;49.082;9.102;2023-02-15T13:19:50;4.40;99.90
27890;DHT22;15238;49.082;9.102;2023-02-15T13:21:58;4.50;99.90
27890;DHT22;15238;49.082;9.102;2023-02-15T13:24:05;4.50;99.90
27890;DHT22;15238;49.082;9.102;2023-02-15T13:26:11;4.50;99.90
27890;DHT22;15238;49.082;9.102;2023-02-15T13:28:15;4.50;99.90
27890;DHT22;15238;49.082;9.102;2023-02-15T13:33:00;4.20;99.90
27890;DHT22;15238;49.082;9.102;2023-02-15T13:34:57;4.30;99.90
27890;DHT22;15238;49.082;9.102;2023-02-15T13:41:53;4.70;99.90
27890;DHT22;15238;49.082;9.102;2023-02-15T13:44:07;4.70;99.90
27890;DHT22;15238;49.082;9.102;2023-02-15T13:53:20;5.10;99.90
27890;DHT22;15238;49.082;9.102;2023-02-15T13:56:28;5.20;99.90
27890;DHT22;15238;49.082;9.102;2023-02-15T13:58:29;5.30;99.90
27890;DHT22;15238;49.082;9.102;2023-02-15T14:00:40;5.30;99.90
27890;DHT22;15238;49.082;9.102;2023-02-15T14:03:11;5.40;99.90
27890;DHT22;15238;49.082;9.102;2023-02-15T14:08:21;5.50;99.90
27890;DHT22;15238;49.082;9.102;2023-02-15T14:10:53;5.60;99.90
27890;DHT22;15238;49.082;9.102;2023-02-15T14:15:35;5.60;99.90
27890;DHT22;15238;49.082;9.102;2023-02-15T14:26:20;5.70;99.90
27890;DHT22;15238;49.082;9.102;2023-02-15T14:28:20;5.70;99.90
27890;DHT22;15238;49.082;9.102;2023-02-15T14:30:29;5.70;99.90
27890;DHT22;15238;49.082;9.102;2023-02-15T14:32:39;5.80;99.90
27890;DHT22;15238;49.082;9.102;2023-02-15T14:34:45;5.80;99.90
27890;DHT22;15238;49.082;9.102;2023-02-15T14:36:50;5.80;99.90
27890;DHT22;15238;49.082;9.102;2023-02-15T14:39:03;5.90;99.90
27890;DHT22;15238;49.082;9.102;2023-02-15T14:45:36;5.90;99.90
27890;DHT22;15238;49.082;9.102;2023-02-15T14:52:31;5.80;99.90
27890;DHT22;15238;49.082;9.102;2023-02-15T14:56:35;5.80;99.90
27890;DHT22;15238;49.082;9.102;2023-02-15T15:01:06;5.80;99.90
27890;DHT22;15238;49.082;9.102;2023-02-15T15:03:20;5.90;99.90
27890;DHT22;15238;49.082;9.102;2023-02-15T15:05:34;5.90;99.90
27890;DHT22;15238;49.082;9.102;2023-02-15T15:09:46;5.90;99.90